ADDS METAR Data INFO
IDs: Format: Raw Decoded Include TAF

Data at: 1424 UTC 22 Nov 2017

METAR for:KVES (Versailles/Darke Cnt, OH, US)
Text:KVES 221415Z AUTO 33004KT 10SM OVC035 00/M01 A3027 RMK AO2
Temperature: 0.0°C ( 32°F)
Dewpoint: -1.0°C ( 30°F) [RH = 93%]
Pressure (altimeter):30.27 inches Hg (1025.1 mb)
Winds:from the NNW (330 degrees) at 5 MPH (4 knots; 2.1 m/s)
Visibility:10 or more sm (16+ km)
Ceiling:3500 feet AGL
Clouds: overcast cloud deck at 3500 feet AGL
QC Flag:automated observation with no human augmentation